createdAt,value
2022-08-16T00:01:47.804Z,12.57
2022-08-16T00:06:51.988Z,11.53
2022-08-16T00:11:55.596Z,13.37
2022-08-16T00:17:15.866Z,11.67
2022-08-16T00:22:21.271Z,11.80
2022-08-16T00:27:31.386Z,10.43
2022-08-16T00:32:33.728Z,13.10
2022-08-16T00:37:56.776Z,11.93
2022-08-16T00:42:58.979Z,12.40
2022-08-16T00:48:03.140Z,12.80
2022-08-16T00:53:25.410Z,13.20
2022-08-16T00:58:34.614Z,12.37
2022-08-16T01:03:41.550Z,11.97
2022-08-16T01:08:47.185Z,11.40
2022-08-16T01:13:59.301Z,11.50
2022-08-16T01:19:11.276Z,10.80
2022-08-16T01:24:52.467Z,10.77
2022-08-16T01:29:56.876Z,12.20
2022-08-16T01:35:02.162Z,11.90
2022-08-16T01:40:07.709Z,11.10
2022-08-16T01:45:10.411Z,12.70
2022-08-16T01:50:42.063Z,12.17
2022-08-16T01:55:37.520Z,11.57
2022-08-16T02:00:43.102Z,13.07
2022-08-16T02:05:51.969Z,11.77
2022-08-16T02:10:55.815Z,11.87
2022-08-16T02:15:58.247Z,11.47
2022-08-16T02:21:00.909Z,11.47
2022-08-16T02:26:05.260Z,10.70
2022-08-16T02:31:10.348Z,11.93
2022-08-16T02:36:49.703Z,11.53
2022-08-16T02:41:40.252Z,11.50
2022-08-16T02:46:49.952Z,8.70
2022-08-16T02:51:53.445Z,9.03
2022-08-16T02:56:56.821Z,9.13
2022-08-16T03:01:59.110Z,9.13
2022-08-16T03:07:01.141Z,9.23
2022-08-16T03:12:08.040Z,8.67
2022-08-16T03:17:09.921Z,9.00
2022-08-16T03:22:11.947Z,9.73
2022-08-16T03:27:23.281Z,10.30
2022-08-16T03:32:25.171Z,11.10
2022-08-16T03:37:28.740Z,10.93
2022-08-16T03:42:32.177Z,10.27
2022-08-16T03:47:34.552Z,10.57
2022-08-16T03:52:36.965Z,10.90
2022-08-16T03:57:52.099Z,10.57
2022-08-16T04:02:56.704Z,10.77
2022-08-16T04:07:58.746Z,10.93
2022-08-16T04:13:04.475Z,10.20
2022-08-16T04:18:06.884Z,11.27
2022-08-16T04:23:09.605Z,11.13
2022-08-16T04:28:51.989Z,11.87
2022-08-16T04:33:34.927Z,12.63
2022-08-16T04:38:37.274Z,11.97
2022-08-16T04:43:43.570Z,10.63
2022-08-16T04:48:45.802Z,11.43
2022-08-16T04:53:49.139Z,11.07
2022-08-16T04:58:52.987Z,11.57
2022-08-16T05:04:01.756Z,10.33
2022-08-16T05:09:06.136Z,9.53
2022-08-16T05:14:09.873Z,10.50
2022-08-16T05:19:16.395Z,9.30
2022-08-16T05:24:22.198Z,9.23
2022-08-16T05:29:57.707Z,9.40
2022-08-16T05:34:50.415Z,7.32
2022-08-16T05:39:55.492Z,8.05
2022-08-16T05:44:59.216Z,7.95
2022-08-16T05:50:01.349Z,9.10
2022-08-16T05:55:05.824Z,8.10
2022-08-16T06:00:11.011Z,10.00
2022-08-16T06:05:14.644Z,8.25
2022-08-16T06:10:31.953Z,7.47
2022-08-16T06:15:36.576Z,6.95
2022-08-16T06:20:55.282Z,9.90
2022-08-16T06:25:58.596Z,8.88
2022-08-16T06:31:02.249Z,11.30
2022-08-16T06:36:08.403Z,12.98
2022-08-16T06:41:13.577Z,10.40
2022-08-16T06:46:31.353Z,11.27
2022-08-16T06:51:45.773Z,13.02
2022-08-16T06:56:52.374Z,13.73
2022-08-16T07:01:58.343Z,15.93
2022-08-16T07:07:00.912Z,13.90
2022-08-16T07:12:05.440Z,14.75
2022-08-16T07:17:11.436Z,14.52
2022-08-16T07:22:36.590Z,14.30
2022-08-16T07:27:38.086Z,13.75
2022-08-16T07:32:41.660Z,13.98
2022-08-16T07:37:53.957Z,14.13
2022-08-16T07:42:55.725Z,12.88
2022-08-16T07:47:59.056Z,13.77
2022-08-16T07:53:13.849Z,12.05
2022-08-16T07:58:18.338Z,12.48
2022-08-16T08:03:39.911Z,10.60
2022-08-16T08:08:50.198Z,10.23
2022-08-16T08:13:56.804Z,11.32
2022-08-16T08:19:02.511Z,10.60
2022-08-16T08:24:05.034Z,10.88
2022-08-16T08:29:11.897Z,11.57
2022-08-16T08:34:15.283Z,10.52
2022-08-16T08:39:20.868Z,10.45
2022-08-16T08:44:28.949Z,10.15
2022-08-16T08:49:46.719Z,10.98
2022-08-16T08:54:56.843Z,9.88
2022-08-16T08:59:58.963Z,10.20
2022-08-16T09:05:02.102Z,8.20
2022-08-16T09:10:20.869Z,8.80
2022-08-16T09:15:24.031Z,7.88
2022-08-16T09:20:27.719Z,7.30
2022-08-16T09:25:34.269Z,7.78
2022-08-16T09:30:44.185Z,7.20
2022-08-16T09:35:53.734Z,7.00
2022-08-16T09:40:56.625Z,6.93
2022-08-16T09:46:01.462Z,6.45
2022-08-16T09:51:06.227Z,6.68
2022-08-16T09:56:14.829Z,6.47
2022-08-16T10:01:19.995Z,6.53
2022-08-16T10:06:24.889Z,5.20
2022-08-16T10:11:26.661Z,5.60
2022-08-16T10:16:30.844Z,5.03
2022-08-16T10:21:34.664Z,4.90
2022-08-16T10:27:16.138Z,4.78
2022-08-16T10:31:59.088Z,3.88
2022-08-16T10:37:03.735Z,4.40
2022-08-16T10:42:05.973Z,4.50
2022-08-16T10:47:07.792Z,4.43
2022-08-16T10:52:18.337Z,4.70
2022-08-16T10:57:21.257Z,3.75
2022-08-16T11:02:58.780Z,4.57
2022-08-16T11:07:52.421Z,4.55
2022-08-16T11:12:56.438Z,4.70
2022-08-16T11:23:22.322Z,3.90
2022-08-16T11:33:55.031Z,4.30
2022-08-16T11:38:59.753Z,3.70
2022-08-16T11:44:02.594Z,4.00
2022-08-16T11:49:11.227Z,3.80
2022-08-16T11:54:20.897Z,4.13
2022-08-16T11:59:28.497Z,4.22
2022-08-16T12:04:31.528Z,3.40
2022-08-16T12:09:35.108Z,3.95
2022-08-16T12:14:41.864Z,3.90
2022-08-16T12:19:48.082Z,3.40
2022-08-16T12:24:52.646Z,3.72
2022-08-16T12:29:55.004Z,3.40
2022-08-16T12:35:01.492Z,3.35
2022-08-16T12:40:08.566Z,3.30
2022-08-16T12:45:28.547Z,3.17
2022-08-16T12:50:32.992Z,3.13
2022-08-16T12:55:41.777Z,3.05
2022-08-16T13:00:44.054Z,3.00
2022-08-16T13:05:55.483Z,3.03
2022-08-16T13:10:59.762Z,2.97
2022-08-16T13:16:15.495Z,3.25
2022-08-16T13:21:23.365Z,2.78
2022-08-16T13:26:27.664Z,3.40
2022-08-16T13:31:29.605Z,2.90
2022-08-16T13:36:48.550Z,2.83
2022-08-16T13:41:53.841Z,3.25
2022-08-16T13:46:56.436Z,3.45
2022-08-16T13:51:58.213Z,3.38
2022-08-16T13:57:02.729Z,3.50
2022-08-16T14:02:07.451Z,3.03
2022-08-16T14:07:12.872Z,3.25
2022-08-16T14:12:25.847Z,3.05
2022-08-16T14:17:29.013Z,3.17
2022-08-16T14:22:34.913Z,3.20
2022-08-16T14:27:43.413Z,3.10
2022-08-16T14:32:48.150Z,2.95
2022-08-16T14:37:57.127Z,3.13
2022-08-16T14:43:06.975Z,2.90
2022-08-16T14:48:09.441Z,3.00
2022-08-16T14:53:11.188Z,3.08
2022-08-16T14:58:19.564Z,3.30
2022-08-16T15:03:21.667Z,2.58
2022-08-16T15:08:36.109Z,2.90
2022-08-16T15:13:40.766Z,3.15
2022-08-16T15:18:42.629Z,2.63
2022-08-16T15:23:48.568Z,2.78
2022-08-16T15:28:52.717Z,2.60
2022-08-16T15:33:56.727Z,3.20
2022-08-16T15:39:07.807Z,2.58
2022-08-16T15:44:25.692Z,3.08
2022-08-16T15:49:34.720Z,3.05
2022-08-16T15:54:53.442Z,2.53
2022-08-16T16:00:15.038Z,2.72
2022-08-16T16:05:17.843Z,2.70
2022-08-16T16:10:20.176Z,2.65
2022-08-16T16:15:32.613Z,2.38
2022-08-16T16:20:35.052Z,2.78
2022-08-16T16:25:43.918Z,2.63
2022-08-16T16:30:47.911Z,3.05
2022-08-16T16:35:55.479Z,3.50
2022-08-16T16:41:00.759Z,3.95
2022-08-16T16:46:05.864Z,2.80
2022-08-16T16:51:28.094Z,2.50
2022-08-16T16:56:37.284Z,2.95
2022-08-16T17:01:59.093Z,2.45
2022-08-16T17:07:10.685Z,2.83
2022-08-16T17:12:17.660Z,2.85
2022-08-16T17:17:29.676Z,2.97
2022-08-16T17:22:32.974Z,2.40
2022-08-16T17:27:35.611Z,2.88
2022-08-16T17:32:47.802Z,2.53
2022-08-16T17:37:52.500Z,2.30
2022-08-16T17:42:57.059Z,2.10
2022-08-16T17:48:00.403Z,2.50
2022-08-16T17:53:04.171Z,3.88
2022-08-16T17:58:21.264Z,3.30
2022-08-16T18:04:03.183Z,3.22
2022-08-16T18:09:00.343Z,3.33
2022-08-16T18:14:05.755Z,4.63
2022-08-16T18:19:10.025Z,3.40
2022-08-16T18:24:14.262Z,3.50
2022-08-16T18:29:17.207Z,3.50
2022-08-16T18:34:20.752Z,3.63
2022-08-16T18:39:23.130Z,3.10
2022-08-16T18:44:30.105Z,3.90
2022-08-16T18:49:36.410Z,4.43
2022-08-16T18:55:01.724Z,3.60
2022-08-16T19:00:01.009Z,3.40
2022-08-16T19:05:05.158Z,3.33
2022-08-16T19:10:08.902Z,3.40
2022-08-16T19:15:16.205Z,4.22
2022-08-16T19:20:22.819Z,5.10
2022-08-16T19:25:47.267Z,3.53
2022-08-16T19:30:48.802Z,3.30
2022-08-16T19:35:52.749Z,4.07
2022-08-16T19:40:54.587Z,5.25
2022-08-16T19:45:56.681Z,4.43
2022-08-16T19:51:00.423Z,4.65
2022-08-16T19:56:02.221Z,3.95
2022-08-16T20:01:03.939Z,4.60
2022-08-16T20:06:07.607Z,6.45
2022-08-16T20:11:14.940Z,5.03
2022-08-16T20:16:17.812Z,5.40
2022-08-16T20:21:21.903Z,5.95
2022-08-16T20:26:27.214Z,5.80
2022-08-16T20:31:28.946Z,4.70
2022-08-16T20:36:32.481Z,4.50
2022-08-16T20:41:34.481Z,5.07
2022-08-16T20:46:39.795Z,5.13
2022-08-16T20:51:49.519Z,4.53
2022-08-16T20:56:54.750Z,4.60
2022-08-16T21:01:58.076Z,5.53
2022-08-16T21:07:01.618Z,5.03
2022-08-16T21:12:06.286Z,5.10
2022-08-16T21:17:09.794Z,4.50
2022-08-16T21:22:18.373Z,5.97
2022-08-16T21:27:20.553Z,5.20
2022-08-16T21:32:35.386Z,5.50
2022-08-16T21:37:40.537Z,5.03
2022-08-16T21:42:43.315Z,5.50
2022-08-16T21:47:45.569Z,5.20
2022-08-16T21:52:49.358Z,5.33
2022-08-16T21:57:51.499Z,5.43
2022-08-16T22:02:54.508Z,4.77
2022-08-16T22:08:01.304Z,5.30
2022-08-16T22:13:04.936Z,4.70
2022-08-16T22:18:06.909Z,5.37
2022-08-16T22:23:12.706Z,5.17
2022-08-16T22:28:15.964Z,5.50
2022-08-16T22:33:20.889Z,4.70
2022-08-16T22:38:54.455Z,5.20
2022-08-16T22:43:47.563Z,5.10
2022-08-16T22:48:49.817Z,5.27
2022-08-16T22:53:53.737Z,4.90
2022-08-16T22:58:56.957Z,6.40
2022-08-16T23:03:59.233Z,5.67
2022-08-16T23:09:03.113Z,5.97
2022-08-16T23:14:06.354Z,5.70
2022-08-16T23:19:11.249Z,6.10
2022-08-16T23:24:16.819Z,5.47
2022-08-16T23:29:23.843Z,5.40
2022-08-16T23:34:30.041Z,5.97
2022-08-16T23:39:33.178Z,5.07
2022-08-16T23:44:56.993Z,5.70
2022-08-16T23:50:03.504Z,5.87
2022-08-16T23:55:08.877Z,5.13
